To NAV CANADA Home Page Login to a new session Search on AWWS site Disclaimer Vers la page française équivalente Tips FAQ What's new on the site To the Forecasts and Observations / NOTAM section To "File a Flight Plan" website Publications and other links Update of the User's profile FIC Telephone Numbers My Weather Data Folder Route Weather Data Regional Weather Data Local Weather Data To the Forecasts and Observations / NOTAM section
Request Generated 02/23/2020 at 09:45:13 UTC . Weather information available at that time is displayed.

METAR/TAF

GANDER INTL/NL    

METAR CYQX 230900Z 23013G19KT 15SM FEW190 FEW240 M05/M08 A2987 RMK AC1CI1 SLP127=
METAR CYQX 230800Z 23014KT 15SM SCT190 SCT240 M05/M08 A2987 RMK AC3CI1 SLP127=
METAR CYQX 230700Z 24015G22KT 15SM FEW022 SCT190 SCT240 M05/M08 A2986 RMK SC1AC2CI1 SLP122=

TAF CYQX 230538Z 2306/2406 23015G25KT P6SM SCT020 TEMPO 2306/2309
BKN020
FM231500 23015G25KT P6SM SCT015
BECMG 2320/2322 25012KT
RMK NXT FCST BY 231200Z=
Your time UTC time
Weather data provided by Environment Canada and NAV CANADA